Sensation — C6FM8 — position and weather

sailwx.info

Track history (hours):
 
Tides and Currents Weather Stations Pressure Air Temp Water Temp Dewpoint Dewpoint Depression Visibility Wind Speed Wind Dir Waves Ship Positions

Sensation

Last reported at 2018-Jul-22 00:07 UTC. Time now 2018-Jul-22 03:22 UTC.
Position N 26°13' W 079°12'.

Type: Ship. MMSI: 309697000.

Date/timePositionNaut miles runAvg speedWind from/ knotsBaromVisibWave heightAir tempDewpointWater temp
2018-Jul-22 00:07N 26°13' W 079°12'215.6
2018-Jul-22 00:00N 26°13' W 079°14'714.7
2018-Jul-21 23:30N 26°11' W 079°22'816.5
2018-Jul-21 23:00N 26°05' W 079°29'917.0
2018-Jul-21 22:30N 25°59' W 079°35'917.3
2018-Jul-21 22:00N 25°53' W 079°42'917.1
2018-Jul-21 21:30N 25°50' W 079°51'916.9
2018-Jul-21 21:00N 25°48' W 080°00'713.8
2018-Jul-21 20:30N 25°46' W 080°08'3 6.8
2018-Jul-21 20:01N 25°47' W 080°11'1 1.2
2018-Jul-21 19:25N 25°47' W 080°10'0 0.0
2018-Jul-21 18:58N 25°47' W 080°10'0 0.0
2018-Jul-21 18:28N 25°47' W 080°10'0 0.0
2018-Jul-21 17:55N 25°47' W 080°10'0 0.0
2018-Jul-21 17:28N 25°47' W 080°10'0 0.0
2018-Jul-21 16:58N 25°47' W 080°10'0 0.0
2018-Jul-21 16:28N 25°47' W 080°10'0 0.0
2018-Jul-21 15:58N 25°47' W 080°10'0 0.0
2018-Jul-21 15:28N 25°47' W 080°10'0 0.0
2018-Jul-21 14:58N 25°47' W 080°10'0 0.0
2018-Jul-21 14:28N 25°47' W 080°10'0 0.0
2018-Jul-21 13:28N 25°47' W 080°10'0 0.0
2018-Jul-21 12:52N 25°47' W 080°10'0 0.0
2018-Jul-21 12:28N 25°47' W 080°10'0 0.0
2018-Jul-21 11:58N 25°47' W 080°10'0 0.0
2018-Jul-21 11:22N 25°47' W 080°10'0 0.0
2018-Jul-21 10:58N 25°47' W 080°10'0 0.0
2018-Jul-21 10:28N 25°47' W 080°10'1 3.0
2018-Jul-21 10:00N 25°46' W 080°09'611.4
2018-Jul-21 09:30N 25°46' W 080°02'611.4
2018-Jul-21 09:00N 25°43' W 079°57'611.6
2018-Jul-21 08:30N 25°37' W 079°57'713.6
2018-Jul-21 08:00N 25°30' W 079°56'714.1
2018-Jul-21 07:30N 25°23' W 079°56'  
2018-Jul-16 23:22N 25°18' W 079°35'616.0
2018-Jul-16 23:00N 25°24' W 079°37'815.4
2018-Jul-16 22:30N 25°31' W 079°39'815.2
2018-Jul-16 22:00N 25°37' W 079°44'815.8
2018-Jul-16 21:30N 25°42' W 079°51'815.2
2018-Jul-16 21:00N 25°45' W 079°59'611.5
2018-Jul-16 20:31N 25°46' W 080°05'4 8.7
2018-Jul-16 20:00N 25°47' W 080°10'0 0.4
2018-Jul-16 19:29N 25°47' W 080°10'0 0.0
2018-Jul-16 18:59N 25°47' W 080°10'0 0.0
2018-Jul-16 18:29N 25°47' W 080°10'0 0.0
2018-Jul-16 17:59N 25°47' W 080°10'0 0.0
2018-Jul-16 17:29N 25°47' W 080°10'0 0.0
2018-Jul-16 16:59N 25°47' W 080°10'0 0.0
2018-Jul-16 16:29N 25°47' W 080°10'0 0.0
2018-Jul-16 15:59N 25°47' W 080°10'0 0.0
2018-Jul-16 15:29N 25°47' W 080°10'0 0.0
2018-Jul-16 14:59N 25°47' W 080°10'0 0.0
2018-Jul-16 14:29N 25°47' W 080°10'0 0.0
2018-Jul-16 13:59N 25°47' W 080°10'0 0.0
2018-Jul-16 13:29N 25°47' W 080°10'0 0.0
2018-Jul-16 12:56N 25°47' W 080°10'0 0.0
2018-Jul-16 12:29N 25°47' W 080°10'0 0.0
2018-Jul-16 11:56N 25°47' W 080°10'0 0.0
2018-Jul-16 11:26N 25°47' W 080°10'0 0.0
2018-Jul-16 11:00N 25°47' W 080°10'1 1.3
2018-Jul-16 10:31N 25°47' W 080°11'2 3.7
2018-Jul-16 10:01N 25°46' W 080°09'611.2
2018-Jul-16 09:30N 25°46' W 080°03'5 9.8
2018-Jul-16 09:00N 25°46' W 079°57'5 9.4
2018-Jul-16 08:30N 25°46' W 079°52'714.4
2018-Jul-16 07:59N 25°47' W 079°44'713.5
2018-Jul-16 07:30N 25°52' W 079°39'914.1
2018-Jul-16 06:54N 25°58' W 079°33'814.7
2018-Jul-16 06:20N 26°05' W 079°28'515.3
2018-Jul-16 06:00N 26°09' W 079°24'814.8
2018-Jul-16 05:30N 26°13' W 079°18'  
2018-Jul-13 03:01N 26°23' W 079°05'17 9.4
2018-Jul-13 01:15N 26°21' W 079°24'312.7
2018-Jul-13 01:00N 26°18' W 079°25'713.4
2018-Jul-13 00:30N 26°12' W 079°29'613.0
2018-Jul-13 00:00N 26°06' W 079°32'714.7
2018-Jul-12 23:31N 25°60' W 079°35'714.8
2018-Jul-12 23:00N 25°53' W 079°39'714.0
2018-Jul-12 22:30N 25°47' W 079°43'611.3
2018-Jul-12 22:00N 25°46' W 079°49'511.0
2018-Jul-12 21:31N 25°46' W 079°55'611.1
2018-Jul-12 21:00N 25°46' W 080°02'611.5
2018-Jul-12 20:30N 25°46' W 080°08'3 5.7
2018-Jul-12 20:00N 25°47' W 080°11'1 1.4
2018-Jul-12 19:29N 25°47' W 080°10'0 0.0
2018-Jul-12 18:59N 25°47' W 080°10'0 0.0
2018-Jul-12 18:29N 25°47' W 080°10'0 0.0
2018-Jul-12 17:59N 25°47' W 080°10'0 0.0
2018-Jul-12 17:29N 25°47' W 080°10'0 0.0
2018-Jul-12 16:59N 25°47' W 080°10'0 0.0
2018-Jul-12 16:26N 25°47' W 080°10'0 0.0
2018-Jul-12 15:59N 25°47' W 080°10'0 0.0
2018-Jul-12 15:29N 25°47' W 080°10'0 0.0
2018-Jul-12 14:59N 25°47' W 080°10'0 0.0
2018-Jul-12 14:29N 25°47' W 080°10'0 0.0
2018-Jul-12 13:59N 25°47' W 080°10'0 0.0
2018-Jul-12 13:29N 25°47' W 080°10'0 0.0
2018-Jul-12 12:59N 25°47' W 080°10'0 0.0
2018-Jul-12 12:29N 25°47' W 080°10'0 0.0
2018-Jul-12 11:59N 25°47' W 080°10'0 0.0
2018-Jul-12 11:29N 25°47' W 080°10'0 0.0
2018-Jul-12 10:59N 25°47' W 080°10'1 1.4
2018-Jul-12 10:30N 25°46' W 080°10'5 9.0
2018-Jul-12 10:00N 25°46' W 080°04'611.2
2018-Jul-12 09:30N 25°46' W 079°58'613.0
2018-Jul-12 09:00N 25°46' W 079°51'713.7
2018-Jul-12 08:29N 25°48' W 079°43'713.6
2018-Jul-12 08:00N 25°53' W 079°39'1414.2
2018-Jul-12 07:03N 26°04' W 079°31'114.2
2018-Jul-12 07:00N 26°05' W 079°30'714.8
2018-Jul-12 06:30N 26°09' W 079°24'816.5
2018-Jul-12 06:00N 26°13' W 079°15'  
Track history (hours):
 
Tides and Currents Weather Stations Pressure Air Temp Water Temp Dewpoint Dewpoint Depression Visibility Wind Speed Wind Dir Waves Ship Positions

Sensation

Last reported at 2018-Jul-22 00:07 UTC. Time now 2018-Jul-22 03:22 UTC.
Position N 26°13' W 079°12'.

Type: Ship. MMSI: 309697000.

Date/timePositionNaut miles runAvg speedWind from/ knotsBaromVisibWave heightAir tempDewpointWater temp
2018-Jul-22 00:07N 26°13' W 079°12'215.6
2018-Jul-22 00:00N 26°13' W 079°14'714.7
2018-Jul-21 23:30N 26°11' W 079°22'816.5
2018-Jul-21 23:00N 26°05' W 079°29'917.0
2018-Jul-21 22:30N 25°59' W 079°35'917.3
2018-Jul-21 22:00N 25°53' W 079°42'917.1
2018-Jul-21 21:30N 25°50' W 079°51'916.9
2018-Jul-21 21:00N 25°48' W 080°00'713.8
2018-Jul-21 20:30N 25°46' W 080°08'3 6.8
2018-Jul-21 20:01N 25°47' W 080°11'1 1.2
2018-Jul-21 19:25N 25°47' W 080°10'0 0.0
2018-Jul-21 18:58N 25°47' W 080°10'0 0.0
2018-Jul-21 18:28N 25°47' W 080°10'0 0.0
2018-Jul-21 17:55N 25°47' W 080°10'0 0.0
2018-Jul-21 17:28N 25°47' W 080°10'0 0.0
2018-Jul-21 16:58N 25°47' W 080°10'0 0.0
2018-Jul-21 16:28N 25°47' W 080°10'0 0.0
2018-Jul-21 15:58N 25°47' W 080°10'0 0.0
2018-Jul-21 15:28N 25°47' W 080°10'0 0.0
2018-Jul-21 14:58N 25°47' W 080°10'0 0.0
2018-Jul-21 14:28N 25°47' W 080°10'0 0.0
2018-Jul-21 13:28N 25°47' W 080°10'0 0.0
2018-Jul-21 12:52N 25°47' W 080°10'0 0.0
2018-Jul-21 12:28N 25°47' W 080°10'0 0.0
2018-Jul-21 11:58N 25°47' W 080°10'0 0.0
2018-Jul-21 11:22N 25°47' W 080°10'0 0.0
2018-Jul-21 10:58N 25°47' W 080°10'0 0.0
2018-Jul-21 10:28N 25°47' W 080°10'1 3.0
2018-Jul-21 10:00N 25°46' W 080°09'611.4
2018-Jul-21 09:30N 25°46' W 080°02'611.4
2018-Jul-21 09:00N 25°43' W 079°57'611.6
2018-Jul-21 08:30N 25°37' W 079°57'713.6
2018-Jul-21 08:00N 25°30' W 079°56'714.1
2018-Jul-21 07:30N 25°23' W 079°56'  
2018-Jul-16 23:22N 25°18' W 079°35'616.0
2018-Jul-16 23:00N 25°24' W 079°37'815.4
2018-Jul-16 22:30N 25°31' W 079°39'815.2
2018-Jul-16 22:00N 25°37' W 079°44'815.8
2018-Jul-16 21:30N 25°42' W 079°51'815.2
2018-Jul-16 21:00N 25°45' W 079°59'611.5
2018-Jul-16 20:31N 25°46' W 080°05'4 8.7
2018-Jul-16 20:00N 25°47' W 080°10'0 0.4
2018-Jul-16 19:29N 25°47' W 080°10'0 0.0
2018-Jul-16 18:59N 25°47' W 080°10'0 0.0
2018-Jul-16 18:29N 25°47' W 080°10'0 0.0
2018-Jul-16 17:59N 25°47' W 080°10'0 0.0
2018-Jul-16 17:29N 25°47' W 080°10'0 0.0
2018-Jul-16 16:59N 25°47' W 080°10'0 0.0
2018-Jul-16 16:29N 25°47' W 080°10'0 0.0
2018-Jul-16 15:59N 25°47' W 080°10'0 0.0
2018-Jul-16 15:29N 25°47' W 080°10'0 0.0
2018-Jul-16 14:59N 25°47' W 080°10'0 0.0
2018-Jul-16 14:29N 25°47' W 080°10'0 0.0
2018-Jul-16 13:59N 25°47' W 080°10'0 0.0
2018-Jul-16 13:29N 25°47' W 080°10'0 0.0
2018-Jul-16 12:56N 25°47' W 080°10'0 0.0
2018-Jul-16 12:29N 25°47' W 080°10'0 0.0
2018-Jul-16 11:56N 25°47' W 080°10'0 0.0
2018-Jul-16 11:26N 25°47' W 080°10'0 0.0
2018-Jul-16 11:00N 25°47' W 080°10'1 1.3
2018-Jul-16 10:31N 25°47' W 080°11'2 3.7
2018-Jul-16 10:01N 25°46' W 080°09'611.2
2018-Jul-16 09:30N 25°46' W 080°03'5 9.8
2018-Jul-16 09:00N 25°46' W 079°57'5 9.4
2018-Jul-16 08:30N 25°46' W 079°52'714.4
2018-Jul-16 07:59N 25°47' W 079°44'713.5
2018-Jul-16 07:30N 25°52' W 079°39'914.1
2018-Jul-16 06:54N 25°58' W 079°33'814.7
2018-Jul-16 06:20N 26°05' W 079°28'515.3
2018-Jul-16 06:00N 26°09' W 079°24'814.8
2018-Jul-16 05:30N 26°13' W 079°18'  
2018-Jul-13 03:01N 26°23' W 079°05'17 9.4
2018-Jul-13 01:15N 26°21' W 079°24'312.7
2018-Jul-13 01:00N 26°18' W 079°25'713.4
2018-Jul-13 00:30N 26°12' W 079°29'613.0
2018-Jul-13 00:00N 26°06' W 079°32'714.7
2018-Jul-12 23:31N 25°60' W 079°35'714.8
2018-Jul-12 23:00N 25°53' W 079°39'714.0
2018-Jul-12 22:30N 25°47' W 079°43'611.3
2018-Jul-12 22:00N 25°46' W 079°49'511.0
2018-Jul-12 21:31N 25°46' W 079°55'611.1
2018-Jul-12 21:00N 25°46' W 080°02'611.5
2018-Jul-12 20:30N 25°46' W 080°08'3 5.7
2018-Jul-12 20:00N 25°47' W 080°11'1 1.4
2018-Jul-12 19:29N 25°47' W 080°10'0 0.0
2018-Jul-12 18:59N 25°47' W 080°10'0 0.0
2018-Jul-12 18:29N 25°47' W 080°10'0 0.0
2018-Jul-12 17:59N 25°47' W 080°10'0 0.0
2018-Jul-12 17:29N 25°47' W 080°10'0 0.0
2018-Jul-12 16:59N 25°47' W 080°10'0 0.0
2018-Jul-12 16:26N 25°47' W 080°10'0 0.0
2018-Jul-12 15:59N 25°47' W 080°10'0 0.0
2018-Jul-12 15:29N 25°47' W 080°10'0 0.0
2018-Jul-12 14:59N 25°47' W 080°10'0 0.0
2018-Jul-12 14:29N 25°47' W 080°10'0 0.0
2018-Jul-12 13:59N 25°47' W 080°10'0 0.0
2018-Jul-12 13:29N 25°47' W 080°10'0 0.0
2018-Jul-12 12:59N 25°47' W 080°10'0 0.0
2018-Jul-12 12:29N 25°47' W 080°10'0 0.0
2018-Jul-12 11:59N 25°47' W 080°10'0 0.0
2018-Jul-12 11:29N 25°47' W 080°10'0 0.0
2018-Jul-12 10:59N 25°47' W 080°10'1 1.4
2018-Jul-12 10:30N 25°46' W 080°10'5 9.0
2018-Jul-12 10:00N 25°46' W 080°04'611.2
2018-Jul-12 09:30N 25°46' W 079°58'613.0
2018-Jul-12 09:00N 25°46' W 079°51'713.7
2018-Jul-12 08:29N 25°48' W 079°43'713.6
2018-Jul-12 08:00N 25°53' W 079°39'1414.2
2018-Jul-12 07:03N 26°04' W 079°31'114.2
2018-Jul-12 07:00N 26°05' W 079°30'714.8
2018-Jul-12 06:30N 26°09' W 079°24'816.5
2018-Jul-12 06:00N 26°13' W 079°15'  

Dump ship's entire track history